Pagrindinis puslapis
METAR-TAF:

METAR-TAF

Oro uostai :

Andøya, Norvegija

platuma: 69-18N, ilguma: 016-09E, Aukštis: 1 m

Dabartinis oras

Ataskaita buvo paskelbta 16 minutes, ne 13:50 UTC
Vėjas 4 kt iš Rytų/Šiaurės Rytų, svyruoja nuo Šiaurės Rytų ir Rytų
Temperatūra 4°C
Drėgmė 44%
Slėgis 1023 hPa
Matomumas 10 km arba daugiau
nėra debesų žemiau 1500 m ir nėra kamuolinių lietaus debesų

METAR: ENAN 201350Z 07004KT 040V100 CAVOK 04/M07 Q1023

Laikas: 16:06 (14:06 UTC)

Prognozė

Ataskaita buvo paskelbta 3 valandos ir 6 minutes, ne 11:00 UTC
Prognozė galioja nuo 20 metu 12 UTC su 21 metu 12 UTC
Vėjas 8 kt iš Šiaurės/Šiaurės Rytų
Matomumas 10 km arba daugiau
nėra debesų žemiau 1500 m ir nėra kamuolinių lietaus debesų
Tapsmas
nuo 21 metu 04 UTC su 21 metu 07 UTC
Vėjas 10 kt iš Pietų/Pietryčių

TAF: ENAN 201100Z 2012/2112 02008KT CAVOK BECMG 2104/2107 16010KT

Orai ataskaitas ir orų prognozės (METAR, TAF).

turimą stotys yra geltonos ir raudonos taškus žemėlapyje.

Perkelti pele per norėdami pamatyti stoties vardą.

Tada spustelėkite, norėdami matyti oro stebėjimo ir prognozės.

Norėdami pakeisti žemėlapį: spustelėkite ant žalios mygtukų su juodo kryžiaus žemyn,; žalią mygtuką su brūkšneliu, jei norite nutolinti; arba žalių rodyklių gretimoms žemėlapius.


METAR-TAF: